Time;durP1;ratioP1;P1;durP2;ratioP2;P2;SDS_P1;SDS_P2;PMS_P1;PMS_P2;Temp;Humidity;BMP_temperature;BMP_pressure;BME280_temperature;BME280_humidity;BME280_pressure;Samples;Min_cycle;Max_cycle;Signal;HPM_P1;HPM_P2
2022/05/25 00:00:10;;;;;;;6.15;4.43;;;;;;;;;;5007460;28;20026;-76
2022/05/25 00:02:36;;;;;;;6.45;4.65;;;;;;;;;;5004829;28;20029;-74
2022/05/25 00:05:04;;;;;;;6.15;4.22;;;;;;;;;;4989001;28;20031;-77
2022/05/25 00:07:30;;;;;;;6.00;4.63;;;;;;;;;;5011196;28;20550;-78
2022/05/25 00:09:55;;;;;;;7.32;5.15;;;;;;;;;;5006522;28;20028;-78
2022/05/25 00:12:21;;;;;;;7.57;5.15;;;;;;;;;;5005920;28;20108;-78
2022/05/25 00:14:48;;;;;;;6.57;4.72;;;;;;;;;;5009492;28;20036;-76
2022/05/25 00:17:13;;;;;;;6.38;5.10;;;;;;;;;;5006549;28;20120;-78
2022/05/25 00:22:22;;;;;;;6.70;5.03;;;;;;;;;;5002064;28;20076;-74
2022/05/25 00:24:48;;;;;;;6.10;4.47;;;;;;;;;;4992499;28;20422;-75
2022/05/25 00:27:13;;;;;;;7.85;5.20;;;;;;;;;;5005301;28;20040;-79
2022/05/25 00:29:38;;;;;;;6.93;4.80;;;;;;;;;;4986057;28;20033;-77
2022/05/25 00:34:45;;;;;;;6.95;5.20;;;;;;;;;;5152735;27;20212;-78
2022/05/25 00:37:11;;;;;;;7.47;4.63;;;;;;;;;;5117967;27;20537;-73
2022/05/25 00:39:38;;;;;;;9.55;5.22;;;;;;;;;;5122592;27;20114;-78
2022/05/25 00:42:04;;;;;;;6.32;4.82;;;;;;;;;;5117864;27;20018;-78
2022/05/25 00:44:29;;;;;;;6.75;4.82;;;;;;;;;;5121283;27;20035;-77
2022/05/25 00:46:55;;;;;;;7.38;5.38;;;;;;;;;;5125269;27;20018;-74
2022/05/25 00:49:26;;;;;;;6.72;4.88;;;;;;;;;;5127669;27;20046;-78
2022/05/25 00:52:00;;;;;;;6.15;4.97;;;;;;;;;;5140892;27;20054;-77
2022/05/25 00:54:33;;;;;;;6.00;4.47;;;;;;;;;;5120013;27;20041;-77
2022/05/25 00:57:01;;;;;;;6.18;4.43;;;;;;;;;;5138101;27;20034;-73
2022/05/25 00:59:32;;;;;;;5.90;4.50;;;;;;;;;;5123810;27;20026;-75
2022/05/25 01:01:58;;;;;;;6.18;4.47;;;;;;;;;;5135338;27;20034;-77
2022/05/25 01:04:24;;;;;;;6.00;4.65;;;;;;;;;;5141210;27;20015;-77
2022/05/25 01:07:24;;;;;;;6.85;4.88;;;;;;;;;;5121429;27;20019;-74
2022/05/25 01:10:22;;;;;;;7.47;4.47;;;;;;;;;;5139652;27;20026;-75
2022/05/25 01:13:06;;;;;;;5.97;4.15;;;;;;;;;;5124310;27;20032;-73
2022/05/25 01:15:56;;;;;;;6.07;4.20;;;;;;;;;;5139930;27;20031;-77
2022/05/25 01:18:40;;;;;;;6.88;3.92;;;;;;;;;;5119175;27;20029;-78
2022/05/25 01:21:26;;;;;;;5.70;4.18;;;;;;;;;;5139082;27;20031;-74
2022/05/25 01:24:14;;;;;;;6.32;4.50;;;;;;;;;;5118417;27;20402;-78
2022/05/25 01:27:03;;;;;;;6.40;4.75;;;;;;;;;;5133229;27;20042;-78
2022/05/25 01:29:39;;;;;;;6.18;4.63;;;;;;;;;;5135395;27;20019;-74
2022/05/25 01:32:26;;;;;;;7.47;4.70;;;;;;;;;;5139844;27;20031;-78
2022/05/25 01:34:57;;;;;;;6.20;4.50;;;;;;;;;;5115688;27;20081;-77
2022/05/25 01:37:46;;;;;;;8.23;4.90;;;;;;;;;;5116277;27;20023;-75
2022/05/25 01:40:34;;;;;;;8.45;4.75;;;;;;;;;;5116042;27;20137;-74
2022/05/25 01:43:06;;;;;;;5.85;4.20;;;;;;;;;;5138699;27;20019;-78
2022/05/25 01:45:34;;;;;;;6.53;4.05;;;;;;;;;;5102238;27;20031;-78
2022/05/25 01:48:03;;;;;;;7.20;5.15;;;;;;;;;;5101403;27;20042;-78
2022/05/25 01:50:41;;;;;;;6.55;4.95;;;;;;;;;;5114471;27;20483;-78
2022/05/25 01:53:09;;;;;;;6.65;4.65;;;;;;;;;;5104516;27;20470;-78
2022/05/25 01:55:40;;;;;;;7.53;5.38;;;;;;;;;;5098946;27;20050;-74
2022/05/25 01:58:09;;;;;;;8.30;4.95;;;;;;;;;;5103155;27;20026;-77
2022/05/25 02:00:44;;;;;;;6.38;5.30;;;;;;;;;;5115922;27;20026;-78
2022/05/25 02:06:20;;;;;;;6.90;4.68;;;;;;;;;;5119632;27;20570;-78
2022/05/25 02:09:00;;;;;;;6.53;4.38;;;;;;;;;;5109214;27;20035;-77
2022/05/25 02:11:37;;;;;;;5.70;4.50;;;;;;;;;;5111823;27;20023;-75
2022/05/25 02:14:26;;;;;;;7.68;4.38;;;;;;;;;;5103233;27;20031;-77
2022/05/25 02:17:23;;;;;;;7.30;4.65;;;;;;;;;;5121911;27;20031;-78
2022/05/25 02:19:58;;;;;;;6.45;4.78;;;;;;;;;;5107541;27;20028;-77
2022/05/25 02:22:40;;;;;;;6.90;4.40;;;;;;;;;;5114947;27;20042;-77
2022/05/25 02:25:14;;;;;;;7.47;4.78;;;;;;;;;;5120301;27;20133;-78
2022/05/25 02:28:17;;;;;;;5.95;4.25;;;;;;;;;;5104858;27;20027;-77
2022/05/25 02:30:51;;;;;;;6.95;4.93;;;;;;;;;;5120920;27;20094;-78
2022/05/25 02:33:27;;;;;;;6.25;4.65;;;;;;;;;;5123064;27;20047;-75
2022/05/25 02:35:56;;;;;;;7.45;4.90;;;;;;;;;;5101083;27;20030;-74
2022/05/25 02:38:21;;;;;;;6.40;4.78;;;;;;;;;;5095357;27;20033;-73
2022/05/25 02:40:46;;;;;;;7.93;4.93;;;;;;;;;;5106124;27;20023;-78
2022/05/25 02:43:12;;;;;;;6.25;4.68;;;;;;;;;;5099501;27;20019;-75
2022/05/25 02:45:39;;;;;;;6.93;4.97;;;;;;;;;;5103096;27;20973;-74
2022/05/25 02:48:05;;;;;;;7.22;4.72;;;;;;;;;;5122092;27;20077;-78
2022/05/25 02:50:30;;;;;;;6.10;4.55;;;;;;;;;;5105823;27;20027;-73
2022/05/25 02:52:56;;;;;;;6.97;4.80;;;;;;;;;;5099502;27;20035;-75
2022/05/25 02:55:22;;;;;;;8.15;4.82;;;;;;;;;;5117527;27;20023;-77
2022/05/25 02:57:48;;;;;;;7.22;4.55;;;;;;;;;;5107299;27;20023;-77
2022/05/25 03:00:14;;;;;;;7.00;4.53;;;;;;;;;;5118033;27;20474;-73
2022/05/25 03:02:40;;;;;;;8.93;5.00;;;;;;;;;;5097936;27;20120;-78
2022/05/25 03:05:07;;;;;;;6.80;4.93;;;;;;;;;;5116952;27;20023;-73
2022/05/25 03:07:33;;;;;;;6.93;5.05;;;;;;;;;;5123582;27;20023;-78
2022/05/25 03:09:58;;;;;;;6.20;4.68;;;;;;;;;;5117551;27;20031;-78
2022/05/25 03:12:24;;;;;;;7.60;4.70;;;;;;;;;;5104617;27;20034;-74
2022/05/25 03:14:49;;;;;;;7.47;5.32;;;;;;;;;;5099525;27;20042;-73
2022/05/25 03:17:14;;;;;;;7.30;5.22;;;;;;;;;;5119274;27;20371;-77
2022/05/25 03:19:42;;;;;;;7.32;5.10;;;;;;;;;;5115106;27;20027;-77
2022/05/25 03:22:08;;;;;;;7.65;5.13;;;;;;;;;;5101443;27;20431;-73
2022/05/25 03:24:34;;;;;;;7.00;5.00;;;;;;;;;;5099556;27;20478;-77
2022/05/25 03:27:00;;;;;;;7.63;5.53;;;;;;;;;;5100598;27;20024;-78
2022/05/25 03:29:26;;;;;;;8.07;5.47;;;;;;;;;;5120289;27;20439;-77
2022/05/25 03:31:53;;;;;;;7.75;5.40;;;;;;;;;;5100529;27;20505;-77
2022/05/25 03:34:18;;;;;;;6.65;5.07;;;;;;;;;;5119168;27;20398;-78
2022/05/25 03:36:45;;;;;;;6.78;4.75;;;;;;;;;;5100243;27;20028;-73
2022/05/25 03:39:10;;;;;;;6.50;4.72;;;;;;;;;;5113929;27;20027;-74
2022/05/25 03:41:36;;;;;;;8.88;5.70;;;;;;;;;;5107955;27;20035;-74
2022/05/25 03:44:01;;;;;;;6.70;5.35;;;;;;;;;;5096513;28;20015;-73
2022/05/25 03:46:27;;;;;;;7.25;5.50;;;;;;;;;;5116635;27;20045;-78
2022/05/25 03:48:52;;;;;;;8.15;5.18;;;;;;;;;;5117878;27;20106;-73
2022/05/25 03:51:17;;;;;;;7.40;5.38;;;;;;;;;;5120018;27;20023;-76
2022/05/25 03:53:42;;;;;;;7.65;5.20;;;;;;;;;;5102010;27;20023;-77
2022/05/25 03:56:08;;;;;;;7.40;5.28;;;;;;;;;;5099759;27;20032;-77
2022/05/25 03:58:33;;;;;;;8.10;4.75;;;;;;;;;;5121569;27;20039;-74
2022/05/25 04:00:59;;;;;;;9.85;5.40;;;;;;;;;;5098161;27;20024;-75
2022/05/25 04:03:24;;;;;;;6.93;5.28;;;;;;;;;;5119329;27;20028;-77
2022/05/25 04:05:49;;;;;;;7.15;5.00;;;;;;;;;;5096979;27;20019;-75
2022/05/25 04:08:15;;;;;;;7.85;5.38;;;;;;;;;;5118823;27;20023;-75
2022/05/25 04:10:40;;;;;;;8.15;5.28;;;;;;;;;;5100420;28;20031;-77
2022/05/25 04:13:06;;;;;;;6.90;4.72;;;;;;;;;;5099647;27;20043;-77
2022/05/25 04:15:33;;;;;;;6.55;4.38;;;;;;;;;;5122153;27;20439;-75
2022/05/25 04:17:58;;;;;;;7.80;4.55;;;;;;;;;;5118427;27;20034;-76
2022/05/25 04:20:25;;;;;;;6.78;4.90;;;;;;;;;;5103302;27;20066;-77
2022/05/25 04:22:50;;;;;;;5.85;4.03;;;;;;;;;;5101067;27;20081;-74
2022/05/25 04:25:19;;;;;;;7.70;4.70;;;;;;;;;;5115194;27;20036;-75
2022/05/25 04:27:46;;;;;;;5.47;4.00;;;;;;;;;;5111724;27;20051;-78
2022/05/25 04:30:14;;;;;;;8.55;4.55;;;;;;;;;;5099881;28;20031;-75
2022/05/25 04:32:39;;;;;;;7.30;4.68;;;;;;;;;;5101075;28;20388;-75
2022/05/25 04:35:05;;;;;;;5.60;4.07;;;;;;;;;;5099668;28;20035;-77
2022/05/25 04:37:49;;;;;;;6.10;4.63;;;;;;;;;;5116694;28;20051;-74
2022/05/25 04:40:19;;;;;;;6.00;3.97;;;;;;;;;;5101886;28;20534;-74
2022/05/25 04:42:45;;;;;;;6.28;4.00;;;;;;;;;;5113603;28;20021;-74
2022/05/25 04:45:10;;;;;;;7.15;3.92;;;;;;;;;;5117721;28;20051;-78
2022/05/25 04:47:37;;;;;;;6.63;4.18;;;;;;;;;;5122200;28;20059;-73
2022/05/25 04:50:06;;;;;;;6.60;3.97;;;;;;;;;;5120762;28;20498;-74
2022/05/25 04:52:35;;;;;;;5.75;3.85;;;;;;;;;;5097751;28;20115;-75
2022/05/25 04:55:00;;;;;;;7.25;3.92;;;;;;;;;;5120324;28;20066;-73
2022/05/25 04:57:27;;;;;;;5.70;3.55;;;;;;;;;;5112433;27;20059;-73
2022/05/25 04:59:59;;;;;;;6.32;3.85;;;;;;;;;;5102130;28;20031;-76
2022/05/25 05:02:25;;;;;;;6.75;3.80;;;;;;;;;;5104019;28;20039;-77
2022/05/25 05:04:50;;;;;;;7.35;3.75;;;;;;;;;;5119470;28;20598;-76
2022/05/25 05:07:16;;;;;;;6.13;4.10;;;;;;;;;;5113904;28;20051;-73
2022/05/25 05:09:43;;;;;;;7.10;3.85;;;;;;;;;;5127709;28;20026;-77
2022/05/25 05:12:09;;;;;;;5.18;3.60;;;;;;;;;;5120699;28;20023;-77
2022/05/25 05:14:35;;;;;;;4.85;3.38;;;;;;;;;;5124726;28;20081;-78
2022/05/25 05:17:04;;;;;;;7.05;3.75;;;;;;;;;;5120292;28;20019;-77
2022/05/25 05:19:30;;;;;;;7.05;3.85;;;;;;;;;;5107930;27;20076;-74
2022/05/25 05:21:57;;;;;;;5.75;3.38;;;;;;;;;;5126149;27;20020;-77
2022/05/25 05:24:23;;;;;;;7.18;3.88;;;;;;;;;;5117052;27;20115;-80
2022/05/25 05:26:48;;;;;;;8.77;3.88;;;;;;;;;;5102309;27;20019;-77
2022/05/25 05:29:14;;;;;;;9.13;3.97;;;;;;;;;;5104192;27;20543;-79
2022/05/25 05:31:39;;;;;;;6.93;4.03;;;;;;;;;;5112173;27;20030;-77
2022/05/25 05:34:05;;;;;;;6.80;3.85;;;;;;;;;;5120970;27;20067;-79
2022/05/25 05:37:06;;;;;;;7.20;4.13;;;;;;;;;;5104394;27;20037;-77
2022/05/25 05:39:35;;;;;;;6.50;3.63;;;;;;;;;;5103883;27;20478;-77
2022/05/25 05:42:04;;;;;;;5.88;4.22;;;;;;;;;;5129634;27;20068;-79
2022/05/25 05:44:40;;;;;;;8.00;3.72;;;;;;;;;;5125234;27;20023;-80
2022/05/25 05:47:09;;;;;;;5.38;3.40;;;;;;;;;;5123716;27;20509;-76
2022/05/25 05:49:36;;;;;;;7.30;4.00;;;;;;;;;;5111394;27;20034;-76
2022/05/25 05:52:02;;;;;;;7.80;4.20;;;;;;;;;;5109950;27;20532;-77
2022/05/25 05:54:27;;;;;;;5.40;3.80;;;;;;;;;;5118328;27;20043;-77
2022/05/25 05:56:53;;;;;;;8.15;3.53;;;;;;;;;;5103188;27;20039;-78
2022/05/25 05:59:18;;;;;;;6.03;3.60;;;;;;;;;;5120893;27;20030;-76
2022/05/25 06:01:45;;;;;;;6.35;3.80;;;;;;;;;;5125310;27;20147;-77
2022/05/25 06:04:11;;;;;;;6.97;4.10;;;;;;;;;;5122612;27;20028;-80
2022/05/25 06:06:36;;;;;;;6.60;4.30;;;;;;;;;;5119263;27;20069;-77
2022/05/25 06:09:02;;;;;;;7.75;4.20;;;;;;;;;;5107422;27;20106;-76
2022/05/25 06:11:27;;;;;;;7.07;3.97;;;;;;;;;;5100695;27;20114;-77
2022/05/25 06:13:52;;;;;;;6.28;3.95;;;;;;;;;;5109501;27;20027;-77
2022/05/25 06:21:47;;;;;;;7.78;4.30;;;;;;;;;;5128957;27;20042;-77
2022/05/25 06:24:12;;;;;;;7.15;4.10;;;;;;;;;;5110885;27;20023;-74
2022/05/25 06:26:38;;;;;;;8.32;4.80;;;;;;;;;;5103635;27;20058;-77
2022/05/25 06:29:03;;;;;;;8.05;4.65;;;;;;;;;;5115718;27;20145;-77
2022/05/25 06:31:30;;;;;;;7.55;4.57;;;;;;;;;;5108391;27;20030;-78
2022/05/25 06:33:56;;;;;;;7.45;4.35;;;;;;;;;;5096589;27;20051;-77
2022/05/25 06:36:28;;;;;;;10.27;4.85;;;;;;;;;;5102116;28;20386;-77
2022/05/25 06:38:54;;;;;;;9.23;5.18;;;;;;;;;;5110051;27;20043;-77
2022/05/25 06:41:20;;;;;;;8.00;4.97;;;;;;;;;;5111024;27;20418;-77
2022/05/25 06:43:46;;;;;;;7.75;4.90;;;;;;;;;;5099737;28;20099;-78
2022/05/25 06:46:13;;;;;;;7.75;4.60;;;;;;;;;;5098868;28;20110;-77
2022/05/25 06:48:39;;;;;;;8.60;5.35;;;;;;;;;;5099346;27;20027;-77
2022/05/25 06:51:15;;;;;;;7.45;5.15;;;;;;;;;;5096122;28;20042;-75
2022/05/25 06:53:40;;;;;;;11.45;7.28;;;;;;;;;;5098205;28;20081;-77
2022/05/25 06:56:06;;;;;;;13.50;7.60;;;;;;;;;;5102444;28;20051;-75
2022/05/25 06:58:33;;;;;;;11.40;8.10;;;;;;;;;;5098461;28;20161;-73
2022/05/25 07:00:58;;;;;;;12.45;8.90;;;;;;;;;;5104122;28;20028;-74
2022/05/25 07:03:23;;;;;;;12.75;9.27;;;;;;;;;;5105968;28;20023;-74
2022/05/25 07:05:49;;;;;;;13.80;10.15;;;;;;;;;;5108033;28;20027;-74
2022/05/25 07:08:14;;;;;;;12.68;9.77;;;;;;;;;;5100008;28;20085;-75
2022/05/25 07:10:45;;;;;;;13.32;10.50;;;;;;;;;;5107030;28;20024;-77
2022/05/25 07:13:14;;;;;;;13.65;10.50;;;;;;;;;;5101259;28;20016;-78
2022/05/25 07:15:39;;;;;;;16.20;11.63;;;;;;;;;;5103770;28;20027;-74
2022/05/25 07:18:05;;;;;;;15.43;10.60;;;;;;;;;;5101948;28;20039;-78
2022/05/25 07:20:30;;;;;;;16.25;12.57;;;;;;;;;;5099414;28;20024;-76
2022/05/25 07:22:56;;;;;;;13.52;11.45;;;;;;;;;;5102343;28;20028;-75
2022/05/25 07:25:21;;;;;;;17.17;12.82;;;;;;;;;;5106539;28;20023;-73
2022/05/25 07:27:47;;;;;;;17.00;13.48;;;;;;;;;;5103079;28;20059;-74
2022/05/25 07:30:13;;;;;;;17.83;13.77;;;;;;;;;;5106788;28;20108;-73
2022/05/25 07:32:39;;;;;;;15.80;13.38;;;;;;;;;;5106618;27;20444;-75
2022/05/25 07:35:05;;;;;;;16.67;13.10;;;;;;;;;;5111588;27;20062;-78
2022/05/25 07:37:37;;;;;;;17.65;14.18;;;;;;;;;;5105816;27;20034;-76
2022/05/25 07:40:28;;;;;;;17.23;13.43;;;;;;;;;;5097767;27;20057;-78
2022/05/25 07:42:57;;;;;;;18.27;13.50;;;;;;;;;;5096959;27;20027;-78
2022/05/25 07:45:23;;;;;;;16.10;13.82;;;;;;;;;;5119219;27;20030;-77
2022/05/25 07:47:53;;;;;;;17.63;13.55;;;;;;;;;;5128222;27;20437;-78
2022/05/25 07:50:19;;;;;;;18.27;14.18;;;;;;;;;;5101953;27;20018;-77
2022/05/25 07:52:45;;;;;;;19.20;15.68;;;;;;;;;;5127456;27;20050;-74
2022/05/25 07:55:11;;;;;;;19.92;13.90;;;;;;;;;;5111830;27;20050;-73
2022/05/25 07:57:37;;;;;;;20.60;15.35;;;;;;;;;;5106991;27;20040;-73
2022/05/25 08:00:05;;;;;;;19.48;15.82;;;;;;;;;;5124189;27;20019;-77
2022/05/25 08:08:06;;;;;;;21.65;16.60;;;;;;;;;;5120700;27;20025;-78
2022/05/25 08:10:32;;;;;;;22.85;17.63;;;;;;;;;;5116953;27;20445;-74
2022/05/25 08:12:58;;;;;;;29.40;18.15;;;;;;;;;;5124298;27;20110;-74
2022/05/25 08:15:25;;;;;;;23.83;17.85;;;;;;;;;;5106516;27;20483;-74
2022/05/25 08:17:51;;;;;;;24.13;17.30;;;;;;;;;;5125172;27;20071;-74
2022/05/25 08:20:17;;;;;;;25.15;19.77;;;;;;;;;;5122871;27;20031;-79
2022/05/25 08:22:42;;;;;;;24.08;18.77;;;;;;;;;;5101725;28;20019;-78
2022/05/25 08:25:09;;;;;;;23.80;18.50;;;;;;;;;;5103606;27;20023;-77
2022/05/25 08:27:38;;;;;;;29.10;20.88;;;;;;;;;;5124384;27;20390;-75
2022/05/25 08:30:11;;;;;;;24.33;18.95;;;;;;;;;;5122685;27;20084;-78
2022/05/25 08:32:36;;;;;;;25.48;19.20;;;;;;;;;;5116150;27;20064;-73
2022/05/25 08:35:03;;;;;;;26.15;19.20;;;;;;;;;;5123138;28;20035;-74
2022/05/25 08:37:28;;;;;;;27.38;19.63;;;;;;;;;;5120182;28;20022;-74
2022/05/25 08:39:54;;;;;;;27.05;18.65;;;;;;;;;;5103000;28;20024;-79
2022/05/25 08:42:22;;;;;;;25.45;19.08;;;;;;;;;;5114193;28;20019;-75
2022/05/25 08:44:49;;;;;;;26.38;18.30;;;;;;;;;;5124543;28;20030;-77
2022/05/25 08:47:15;;;;;;;24.42;17.98;;;;;;;;;;5118727;28;20035;-77
2022/05/25 08:49:45;;;;;;;22.02;17.52;;;;;;;;;;5125416;28;20364;-78
2022/05/25 08:52:29;;;;;;;24.60;16.85;;;;;;;;;;5117088;28;20027;-73
2022/05/25 08:54:54;;;;;;;21.17;17.02;;;;;;;;;;5102416;27;20019;-74
2022/05/25 08:57:24;;;;;;;20.77;16.65;;;;;;;;;;5102375;27;20023;-74
2022/05/25 08:59:55;;;;;;;22.73;17.33;;;;;;;;;;5111283;27;20433;-77
2022/05/25 09:02:39;;;;;;;22.70;16.45;;;;;;;;;;5105532;27;20023;-78
2022/05/25 09:05:29;;;;;;;20.83;15.82;;;;;;;;;;5111401;27;20031;-78
2022/05/25 09:08:13;;;;;;;19.83;15.68;;;;;;;;;;5108836;27;20034;-78
2022/05/25 09:10:48;;;;;;;20.80;15.63;;;;;;;;;;5126200;27;20076;-75
2022/05/25 09:13:23;;;;;;;18.27;15.02;;;;;;;;;;5120982;27;20035;-74
2022/05/25 09:18:39;;;;;;;16.83;14.45;;;;;;;;;;5125777;27;20047;-75
2022/05/25 09:21:05;;;;;;;15.48;12.02;;;;;;;;;;5127884;27;20022;-79
2022/05/25 09:23:31;;;;;;;16.40;12.68;;;;;;;;;;5110203;27;20027;-74
2022/05/25 09:25:58;;;;;;;17.13;12.88;;;;;;;;;;5112951;27;20027;-75
2022/05/25 09:28:30;;;;;;;16.98;13.10;;;;;;;;;;5108026;27;20031;-74
2022/05/25 09:30:58;;;;;;;14.52;11.77;;;;;;;;;;5119677;27;20490;-74
2022/05/25 09:33:33;;;;;;;13.07;11.02;;;;;;;;;;5106427;27;20061;-78
2022/05/25 09:36:08;;;;;;;12.73;10.00;;;;;;;;;;5107526;27;20023;-79
2022/05/25 09:38:42;;;;;;;11.20;9.82;;;;;;;;;;5109843;27;20043;-74
2022/05/25 09:41:19;;;;;;;12.18;9.35;;;;;;;;;;5104940;27;20031;-74
2022/05/25 09:43:44;;;;;;;9.35;8.40;;;;;;;;;;5127530;27;20542;-78
2022/05/25 09:46:26;;;;;;;11.52;9.27;;;;;;;;;;5104544;27;20031;-78
2022/05/25 09:48:58;;;;;;;11.50;8.00;;;;;;;;;;5108505;27;20072;-76
2022/05/25 09:51:46;;;;;;;10.32;8.30;;;;;;;;;;5126027;27;20129;-74
2022/05/25 09:54:13;;;;;;;9.48;8.25;;;;;;;;;;5105740;27;20058;-78
2022/05/25 09:56:44;;;;;;;9.50;7.03;;;;;;;;;;5096968;27;20368;-78
2022/05/25 09:59:21;;;;;;;7.10;6.38;;;;;;;;;;5105805;27;20023;-75
2022/05/25 10:01:48;;;;;;;7.57;6.03;;;;;;;;;;5102374;27;20031;-75
2022/05/25 10:04:37;;;;;;;6.00;5.40;;;;;;;;;;5126573;27;20382;-75
2022/05/25 10:07:17;;;;;;;5.45;4.85;;;;;;;;;;5102181;27;20036;-77
2022/05/25 10:09:51;;;;;;;5.65;4.60;;;;;;;;;;5121185;27;20110;-77
2022/05/25 10:12:24;;;;;;;7.78;4.13;;;;;;;;;;5131495;27;20024;-76
2022/05/25 10:14:56;;;;;;;5.30;4.40;;;;;;;;;;5106878;27;20030;-79
2022/05/25 10:17:43;;;;;;;5.75;3.45;;;;;;;;;;5121854;27;20024;-77
2022/05/25 10:20:28;;;;;;;5.40;3.78;;;;;;;;;;5117941;27;20034;-77
2022/05/25 10:23:24;;;;;;;3.92;3.33;;;;;;;;;;5130891;27;20024;-75
2022/05/25 10:25:53;;;;;;;4.57;3.60;;;;;;;;;;5094421;27;20031;-77
2022/05/25 10:28:22;;;;;;;4.40;3.75;;;;;;;;;;5103098;27;20019;-78
2022/05/25 10:36:56;;;;;;;5.68;4.85;;;;;;;;;;5130908;27;20425;-78
2022/05/25 10:39:28;;;;;;;6.20;4.63;;;;;;;;;;5106687;27;20034;-76
2022/05/25 10:42:18;;;;;;;5.47;4.78;;;;;;;;;;5114794;27;20712;-74
2022/05/25 10:45:12;;;;;;;5.82;4.97;;;;;;;;;;5121423;27;20030;-78
2022/05/25 10:47:49;;;;;;;;;;;;;;;;;;5124506;27;20046;-74
2022/05/25 10:50:30;;;;;;;4.80;3.78;;;;;;;;;;5103069;27;19911;-74
2022/05/25 10:53:10;;;;;;;5.40;3.92;;;;;;;;;;5108706;27;20031;-74
2022/05/25 10:55:58;;;;;;;5.70;4.13;;;;;;;;;;5098575;27;20696;-75
2022/05/25 10:58:56;;;;;;;4.88;3.80;;;;;;;;;;5127791;27;20030;-74
2022/05/25 11:01:34;;;;;;;5.22;4.00;;;;;;;;;;5105261;27;20444;-74
2022/05/25 11:04:27;;;;;;;8.02;4.15;;;;;;;;;;5116268;27;20866;-74
2022/05/25 11:07:21;;;;;;;3.63;2.70;;;;;;;;;;5110670;27;20383;-79
2022/05/25 11:10:17;;;;;;;6.40;2.90;;;;;;;;;;5123357;27;20124;-78
2022/05/25 11:12:42;;;;;;;3.30;2.25;;;;;;;;;;5103675;27;20019;-74
2022/05/25 11:15:28;;;;;;;3.63;2.50;;;;;;;;;;5130198;27;21029;-74
2022/05/25 11:17:56;;;;;;;3.15;2.47;;;;;;;;;;5121483;27;20027;-74
2022/05/25 11:20:32;;;;;;;3.55;2.53;;;;;;;;;;5126492;27;20027;-78
2022/05/25 11:23:15;;;;;;;4.82;3.25;;;;;;;;;;5123480;27;20092;-76
2022/05/25 11:25:50;;;;;;;;;;;;;;;;;;5112803;27;20146;-78
2022/05/25 11:28:21;;;;;;;4.50;3.70;;;;;;;;;;5126561;27;19995;-74
2022/05/25 11:30:52;;;;;;;4.40;3.08;;;;;;;;;;5109992;27;20023;-77
2022/05/25 11:34:02;;;;;;;4.22;3.42;;;;;;;;;;5109810;27;20035;-78
2022/05/25 11:36:49;;;;;;;3.88;3.22;;;;;;;;;;5116087;27;20040;-74
2022/05/25 11:40:00;;;;;;;4.47;3.88;;;;;;;;;;5103099;27;20399;-77
2022/05/25 11:43:07;;;;;;;4.38;3.50;;;;;;;;;;5047949;28;20127;-78
2022/05/25 11:45:53;;;;;;;4.45;3.70;;;;;;;;;;5094060;27;20049;-74
2022/05/25 11:49:04;;;;;;;4.35;3.28;;;;;;;;;;5100602;27;20112;-77
2022/05/25 11:51:40;;;;;;;6.40;3.25;;;;;;;;;;5112035;27;20143;-77
2022/05/25 11:54:16;;;;;;;4.65;3.60;;;;;;;;;;5105535;27;20069;-74
2022/05/25 11:57:17;;;;;;;6.90;3.80;;;;;;;;;;5123697;27;20035;-75
2022/05/25 12:00:00;;;;;;;4.47;3.00;;;;;;;;;;5063227;28;20039;-77
2022/05/25 12:02:43;;;;;;;5.82;3.50;;;;;;;;;;5098256;27;20039;-78
2022/05/25 12:05:22;;;;;;;9.52;4.00;;;;;;;;;;5102870;27;20050;-77
2022/05/25 12:08:16;;;;;;;4.53;3.30;;;;;;;;;;5103392;27;20031;-74
2022/05/25 12:10:57;;;;;;;4.72;3.58;;;;;;;;;;5103434;27;20026;-78
2022/05/25 12:13:50;;;;;;;5.45;3.90;;;;;;;;;;5119237;27;20493;-74
2022/05/25 12:16:27;;;;;;;4.57;3.60;;;;;;;;;;5109592;27;20031;-74
2022/05/25 12:19:15;;;;;;;5.30;3.35;;;;;;;;;;5106898;27;20470;-74
2022/05/25 12:21:53;;;;;;;5.50;2.70;;;;;;;;;;5112952;27;20546;-77
2022/05/25 12:24:36;;;;;;;4.18;2.60;;;;;;;;;;5099888;27;20465;-73
2022/05/25 12:27:05;;;;;;;3.05;2.40;;;;;;;;;;5107812;27;20035;-81
2022/05/25 12:29:35;;;;;;;2.85;1.98;;;;;;;;;;5120277;27;20035;-72
2022/05/25 12:32:01;;;;;;;3.08;1.83;;;;;;;;;;5124342;27;20015;-72
2022/05/25 12:34:47;;;;;;;2.58;1.80;;;;;;;;;;5113744;28;20050;-71
2022/05/25 12:37:23;;;;;;;3.50;1.70;;;;;;;;;;5120452;28;20023;-73
2022/05/25 12:39:48;;;;;;;3.95;1.90;;;;;;;;;;5097824;28;20034;-73
2022/05/25 12:42:23;;;;;;;2.57;1.70;;;;;;;;;;5117197;28;20068;-75
2022/05/25 12:50:50;;;;;;;5.28;1.90;;;;;;;;;;5115181;28;20091;-71
2022/05/25 12:53:20;;;;;;;3.63;1.55;;;;;;;;;;5125644;28;20023;-75
2022/05/25 12:56:05;;;;;;;3.10;1.70;;;;;;;;;;5124029;28;20494;-74
2022/05/25 12:58:43;;;;;;;3.60;1.70;;;;;;;;;;5121914;28;20032;-72
2022/05/25 13:01:14;;;;;;;15.02;2.50;;;;;;;;;;5117594;28;20363;-75
2022/05/25 13:03:45;;;;;;;2.65;2.05;;;;;;;;;;5127750;28;20015;-74
2022/05/25 13:06:12;;;;;;;4.07;2.33;;;;;;;;;;5113960;28;20110;-73
2022/05/25 13:08:46;;;;;;;3.55;2.17;;;;;;;;;;5121620;28;20046;-71
2022/05/25 13:11:43;;;;;;;3.17;2.20;;;;;;;;;;5117339;28;20023;-71
2022/05/25 13:14:16;;;;;;;4.03;2.20;;;;;;;;;;5121615;28;20033;-74
2022/05/25 13:16:41;;;;;;;3.88;2.38;;;;;;;;;;5124609;28;20026;-73
2022/05/25 13:19:28;;;;;;;3.10;1.90;;;;;;;;;;5120842;28;20027;-70
2022/05/25 13:22:02;;;;;;;2.33;1.73;;;;;;;;;;5122450;28;20471;-71
2022/05/25 13:24:39;;;;;;;4.38;1.50;;;;;;;;;;5118128;28;20375;-71
2022/05/25 13:27:11;;;;;;;4.05;1.50;;;;;;;;;;5122948;28;20130;-73
2022/05/25 13:30:03;;;;;;;2.60;1.60;;;;;;;;;;5121799;28;20540;-74
2022/05/25 13:32:49;;;;;;;3.88;1.40;;;;;;;;;;5115894;28;20382;-73
2022/05/25 13:35:20;;;;;;;2.95;1.45;;;;;;;;;;5098794;28;20097;-71
2022/05/25 13:37:52;;;;;;;2.20;1.27;;;;;;;;;;5120627;28;20018;-73
2022/05/25 13:40:23;;;;;;;2.63;1.02;;;;;;;;;;5122841;27;20027;-71
2022/05/25 13:42:49;;;;;;;2.28;1.20;;;;;;;;;;5121104;27;20031;-71
2022/05/25 13:45:24;;;;;;;2.10;1.52;;;;;;;;;;5106518;27;20019;-70
2022/05/25 13:47:55;;;;;;;4.72;1.75;;;;;;;;;;5119376;27;20118;-72
2022/05/25 13:50:39;;;;;;;2.25;1.20;;;;;;;;;;5128408;27;20034;-75
2022/05/25 13:53:09;;;;;;;2.45;1.50;;;;;;;;;;5106336;27;20026;-75
2022/05/25 13:55:36;;;;;;;3.45;1.70;;;;;;;;;;5106441;27;20041;-74
2022/05/25 13:58:07;;;;;;;2.50;1.90;;;;;;;;;;5103956;27;20071;-71
2022/05/25 14:00:41;;;;;;;3.95;1.70;;;;;;;;;;5109177;27;20490;-75
2022/05/25 14:03:22;;;;;;;3.60;1.50;;;;;;;;;;5109349;27;20417;-75
2022/05/25 14:05:50;;;;;;;2.50;1.52;;;;;;;;;;5121967;27;20110;-71
2022/05/25 14:11:21;;;;;;;3.72;1.30;;;;;;;;;;5069831;27;20692;-74
2022/05/25 14:13:47;;;;;;;3.30;1.30;;;;;;;;;;5120994;27;20035;-75
2022/05/25 14:16:26;;;;;;;2.30;1.40;;;;;;;;;;5124751;27;20019;-75
2022/05/25 14:18:51;;;;;;;3.97;1.27;;;;;;;;;;5127509;27;20604;-71
2022/05/25 14:21:45;;;;;;;2.45;1.20;;;;;;;;;;5121241;27;20035;-74
2022/05/25 14:24:41;;;;;;;2.13;1.20;;;;;;;;;;5120193;27;20534;-74
2022/05/25 14:27:24;;;;;;;4.13;1.20;;;;;;;;;;5119183;27;20444;-71
2022/05/25 14:29:51;;;;;;;5.30;1.50;;;;;;;;;;5104830;27;20475;-71
2022/05/25 14:32:22;;;;;;;7.43;1.75;;;;;;;;;;5118622;27;20369;-74
2022/05/25 14:34:49;;;;;;;2.72;1.40;;;;;;;;;;5119981;27;20062;-71
2022/05/25 14:37:20;;;;;;;2.50;1.38;;;;;;;;;;5126330;27;20091;-77
2022/05/25 14:39:46;;;;;;;3.03;1.40;;;;;;;;;;5105554;27;20027;-73
2022/05/25 14:42:18;;;;;;;2.97;1.35;;;;;;;;;;5117625;27;20130;-71
2022/05/25 14:44:47;;;;;;;3.70;1.30;;;;;;;;;;5114956;27;20420;-74
2022/05/25 14:47:33;;;;;;;3.75;1.42;;;;;;;;;;5104209;27;20024;-71
2022/05/25 14:50:13;;;;;;;4.03;1.40;;;;;;;;;;5101020;27;20023;-72
2022/05/25 14:52:51;;;;;;;5.10;1.42;;;;;;;;;;5119294;27;20054;-74
2022/05/25 14:55:25;;;;;;;3.33;1.48;;;;;;;;;;5115929;27;20467;-71
2022/05/25 14:58:18;;;;;;;3.72;1.20;;;;;;;;;;5121671;27;20047;-75
2022/05/25 15:00:56;;;;;;;2.22;1.27;;;;;;;;;;5098824;27;20020;-71
2022/05/25 15:03:50;;;;;;;3.42;1.20;;;;;;;;;;5124159;27;20383;-71
2022/05/25 15:06:20;;;;;;;3.20;1.10;;;;;;;;;;5120208;27;20122;-71
2022/05/25 15:08:51;;;;;;;5.32;1.23;;;;;;;;;;5121851;27;20497;-71
2022/05/25 15:11:29;;;;;;;4.18;1.20;;;;;;;;;;5101302;27;20027;-70
2022/05/25 15:19:44;;;;;;;1.58;1.00;;;;;;;;;;5114091;27;20080;-73
2022/05/25 15:22:16;;;;;;;6.03;1.30;;;;;;;;;;5116504;27;20031;-71
2022/05/25 15:24:53;;;;;;;4.55;1.20;;;;;;;;;;5111326;27;20023;-71
2022/05/25 15:27:23;;;;;;;3.83;1.13;;;;;;;;;;5123066;27;20369;-70
2022/05/25 15:29:54;;;;;;;2.25;0.80;;;;;;;;;;5112067;27;20035;-74
2022/05/25 15:32:20;;;;;;;2.72;1.10;;;;;;;;;;5120503;27;20023;-70
2022/05/25 15:34:46;;;;;;;0.93;0.70;;;;;;;;;;5117471;27;20571;-73
2022/05/25 15:37:23;;;;;;;2.67;0.90;;;;;;;;;;5100031;27;20019;-74
2022/05/25 15:39:49;;;;;;;3.75;1.10;;;;;;;;;;5113949;27;20042;-72
2022/05/25 15:42:14;;;;;;;2.08;0.85;;;;;;;;;;5098326;27;20031;-70
2022/05/25 15:44:39;;;;;;;2.17;0.85;;;;;;;;;;5098171;27;20041;-71
2022/05/25 15:47:05;;;;;;;1.60;0.85;;;;;;;;;;5120587;27;20031;-72
2022/05/25 15:49:30;;;;;;;3.17;1.00;;;;;;;;;;5100481;27;20063;-72
2022/05/25 15:51:57;;;;;;;1.25;0.80;;;;;;;;;;5124144;27;20026;-75